sensor_id;sensor_type;location;lat;lon;timestamp;P1;durP1;ratioP1;P2;durP2;ratioP2
10880;SDS011;5493;48.884;8.338;2024-02-14T00:00:00;4.03;;;2.20;;
10880;SDS011;5493;48.884;8.338;2024-02-14T00:02:27;6.33;;;2.53;;
10880;SDS011;5493;48.884;8.338;2024-02-14T00:04:54;4.97;;;2.20;;
10880;SDS011;5493;48.884;8.338;2024-02-14T00:07:22;3.13;;;2.00;;
10880;SDS011;5493;48.884;8.338;2024-02-14T00:09:48;5.97;;;2.90;;
10880;SDS011;5493;48.884;8.338;2024-02-14T00:12:15;5.77;;;3.67;;
10880;SDS011;5493;48.884;8.338;2024-02-14T00:14:42;6.50;;;3.70;;
10880;SDS011;5493;48.884;8.338;2024-02-14T00:17:09;7.13;;;4.00;;
10880;SDS011;5493;48.884;8.338;2024-02-14T00:19:37;5.87;;;3.50;;
10880;SDS011;5493;48.884;8.338;2024-02-14T00:22:04;6.37;;;3.50;;
10880;SDS011;5493;48.884;8.338;2024-02-14T00:24:32;6.60;;;2.60;;
10880;SDS011;5493;48.884;8.338;2024-02-14T00:27:00;3.67;;;1.40;;
10880;SDS011;5493;48.884;8.338;2024-02-14T00:29:28;4.70;;;2.23;;
10880;SDS011;5493;48.884;8.338;2024-02-14T00:31:54;3.00;;;1.60;;
10880;SDS011;5493;48.884;8.338;2024-02-14T00:34:21;2.73;;;1.70;;
10880;SDS011;5493;48.884;8.338;2024-02-14T00:36:47;1.83;;;1.50;;
10880;SDS011;5493;48.884;8.338;2024-02-14T00:39:14;1.70;;;1.17;;
10880;SDS011;5493;48.884;8.338;2024-02-14T00:41:42;3.37;;;1.37;;
10880;SDS011;5493;48.884;8.338;2024-02-14T00:44:08;1.93;;;1.20;;
10880;SDS011;5493;48.884;8.338;2024-02-14T00:46:35;2.97;;;1.00;;
10880;SDS011;5493;48.884;8.338;2024-02-14T00:49:01;3.53;;;1.20;;
10880;SDS011;5493;48.884;8.338;2024-02-14T00:51:28;2.47;;;1.07;;
10880;SDS011;5493;48.884;8.338;2024-02-14T00:53:54;1.27;;;0.83;;
10880;SDS011;5493;48.884;8.338;2024-02-14T00:56:21;2.60;;;1.17;;
10880;SDS011;5493;48.884;8.338;2024-02-14T00:58:50;3.63;;;0.80;;
10880;SDS011;5493;48.884;8.338;2024-02-14T01:01:16;1.23;;;0.90;;
10880;SDS011;5493;48.884;8.338;2024-02-14T01:03:43;2.87;;;1.00;;
10880;SDS011;5493;48.884;8.338;2024-02-14T01:06:09;3.03;;;1.07;;
10880;SDS011;5493;48.884;8.338;2024-02-14T01:08:36;2.23;;;0.97;;
10880;SDS011;5493;48.884;8.338;2024-02-14T01:11:02;2.53;;;0.80;;
10880;SDS011;5493;48.884;8.338;2024-02-14T01:13:29;0.70;;;0.63;;
10880;SDS011;5493;48.884;8.338;2024-02-14T01:15:57;3.07;;;1.00;;
10880;SDS011;5493;48.884;8.338;2024-02-14T01:18:23;1.80;;;1.00;;
10880;SDS011;5493;48.884;8.338;2024-02-14T01:20:50;1.03;;;0.80;;
10880;SDS011;5493;48.884;8.338;2024-02-14T01:23:17;2.70;;;0.60;;
10880;SDS011;5493;48.884;8.338;2024-02-14T01:25:43;1.23;;;0.83;;
10880;SDS011;5493;48.884;8.338;2024-02-14T01:28:09;2.17;;;0.90;;
10880;SDS011;5493;48.884;8.338;2024-02-14T01:30:36;0.97;;;0.93;;
10880;SDS011;5493;48.884;8.338;2024-02-14T01:33:04;5.10;;;1.00;;
10880;SDS011;5493;48.884;8.338;2024-02-14T01:35:31;0.93;;;0.73;;
10880;SDS011;5493;48.884;8.338;2024-02-14T01:37:57;2.63;;;0.93;;
10880;SDS011;5493;48.884;8.338;2024-02-14T01:40:24;1.03;;;0.90;;
10880;SDS011;5493;48.884;8.338;2024-02-14T01:42:50;1.27;;;0.90;;
10880;SDS011;5493;48.884;8.338;2024-02-14T01:45:17;0.60;;;0.60;;
10880;SDS011;5493;48.884;8.338;2024-02-14T01:47:44;2.40;;;1.20;;
10880;SDS011;5493;48.884;8.338;2024-02-14T01:50:12;1.57;;;0.93;;
10880;SDS011;5493;48.884;8.338;2024-02-14T01:52:39;2.33;;;0.90;;
10880;SDS011;5493;48.884;8.338;2024-02-14T01:55:08;3.73;;;0.90;;
10880;SDS011;5493;48.884;8.338;2024-02-14T01:57:35;2.73;;;0.83;;
10880;SDS011;5493;48.884;8.338;2024-02-14T02:00:03;4.23;;;0.60;;
10880;SDS011;5493;48.884;8.338;2024-02-14T02:02:33;2.43;;;0.93;;
10880;SDS011;5493;48.884;8.338;2024-02-14T02:05:01;2.23;;;0.80;;
10880;SDS011;5493;48.884;8.338;2024-02-14T02:07:29;4.60;;;1.10;;
10880;SDS011;5493;48.884;8.338;2024-02-14T02:09:58;1.50;;;1.00;;
10880;SDS011;5493;48.884;8.338;2024-02-14T02:12:24;1.50;;;0.80;;
10880;SDS011;5493;48.884;8.338;2024-02-14T02:14:52;1.40;;;0.90;;
10880;SDS011;5493;48.884;8.338;2024-02-14T02:17:19;3.00;;;1.07;;
10880;SDS011;5493;48.884;8.338;2024-02-14T02:19:46;2.73;;;1.03;;
10880;SDS011;5493;48.884;8.338;2024-02-14T02:22:12;2.30;;;1.00;;
10880;SDS011;5493;48.884;8.338;2024-02-14T02:24:40;3.27;;;0.80;;
10880;SDS011;5493;48.884;8.338;2024-02-14T02:27:06;2.93;;;1.07;;
10880;SDS011;5493;48.884;8.338;2024-02-14T02:29:33;2.23;;;0.93;;
10880;SDS011;5493;48.884;8.338;2024-02-14T02:32:03;0.77;;;0.73;;
10880;SDS011;5493;48.884;8.338;2024-02-14T02:34:31;2.40;;;0.87;;
10880;SDS011;5493;48.884;8.338;2024-02-14T02:36:58;0.93;;;0.53;;
10880;SDS011;5493;48.884;8.338;2024-02-14T02:39:24;3.17;;;0.70;;
10880;SDS011;5493;48.884;8.338;2024-02-14T02:41:52;3.37;;;1.00;;
10880;SDS011;5493;48.884;8.338;2024-02-14T02:44:22;1.37;;;0.87;;
10880;SDS011;5493;48.884;8.338;2024-02-14T02:46:48;1.10;;;0.67;;
10880;SDS011;5493;48.884;8.338;2024-02-14T02:49:15;1.20;;;0.83;;
10880;SDS011;5493;48.884;8.338;2024-02-14T02:51:41;1.73;;;1.00;;
10880;SDS011;5493;48.884;8.338;2024-02-14T02:54:08;3.23;;;1.03;;
10880;SDS011;5493;48.884;8.338;2024-02-14T02:56:36;2.33;;;1.00;;
10880;SDS011;5493;48.884;8.338;2024-02-14T02:59:04;1.83;;;0.97;;
10880;SDS011;5493;48.884;8.338;2024-02-14T03:01:34;1.43;;;0.90;;
10880;SDS011;5493;48.884;8.338;2024-02-14T03:04:01;2.57;;;0.77;;
10880;SDS011;5493;48.884;8.338;2024-02-14T03:06:28;2.17;;;0.93;;
10880;SDS011;5493;48.884;8.338;2024-02-14T03:08:54;2.83;;;0.90;;
10880;SDS011;5493;48.884;8.338;2024-02-14T03:11:22;3.77;;;0.73;;
10880;SDS011;5493;48.884;8.338;2024-02-14T03:13:50;1.70;;;0.70;;
10880;SDS011;5493;48.884;8.338;2024-02-14T03:16:18;4.87;;;1.10;;
10880;SDS011;5493;48.884;8.338;2024-02-14T03:18:44;2.07;;;0.80;;
10880;SDS011;5493;48.884;8.338;2024-02-14T03:21:11;1.37;;;0.80;;
10880;SDS011;5493;48.884;8.338;2024-02-14T03:23:37;4.07;;;0.90;;
10880;SDS011;5493;48.884;8.338;2024-02-14T03:26:04;2.03;;;0.70;;
10880;SDS011;5493;48.884;8.338;2024-02-14T03:28:32;1.47;;;0.70;;
10880;SDS011;5493;48.884;8.338;2024-02-14T03:30:58;2.43;;;0.70;;
10880;SDS011;5493;48.884;8.338;2024-02-14T03:33:26;0.70;;;0.67;;
10880;SDS011;5493;48.884;8.338;2024-02-14T03:35:54;1.63;;;0.90;;
10880;SDS011;5493;48.884;8.338;2024-02-14T03:38:29;2.00;;;0.97;;
10880;SDS011;5493;48.884;8.338;2024-02-14T03:40:56;1.57;;;0.77;;
10880;SDS011;5493;48.884;8.338;2024-02-14T03:43:23;0.87;;;0.43;;
10880;SDS011;5493;48.884;8.338;2024-02-14T03:45:49;2.00;;;0.70;;
10880;SDS011;5493;48.884;8.338;2024-02-14T03:48:16;2.50;;;0.80;;
10880;SDS011;5493;48.884;8.338;2024-02-14T03:50:44;1.03;;;0.60;;
10880;SDS011;5493;48.884;8.338;2024-02-14T03:53:11;0.37;;;0.33;;
10880;SDS011;5493;48.884;8.338;2024-02-14T03:55:37;1.80;;;0.93;;
10880;SDS011;5493;48.884;8.338;2024-02-14T03:58:04;2.00;;;1.03;;
10880;SDS011;5493;48.884;8.338;2024-02-14T04:00:31;1.43;;;0.60;;
10880;SDS011;5493;48.884;8.338;2024-02-14T04:03:00;1.60;;;0.63;;
10880;SDS011;5493;48.884;8.338;2024-02-14T04:05:27;1.27;;;0.50;;
10880;SDS011;5493;48.884;8.338;2024-02-14T04:07:55;2.97;;;0.60;;
10880;SDS011;5493;48.884;8.338;2024-02-14T04:10:22;2.07;;;0.80;;
10880;SDS011;5493;48.884;8.338;2024-02-14T04:12:49;1.03;;;0.80;;
10880;SDS011;5493;48.884;8.338;2024-02-14T04:15:15;1.33;;;0.83;;
10880;SDS011;5493;48.884;8.338;2024-02-14T04:17:42;1.07;;;0.70;;
10880;SDS011;5493;48.884;8.338;2024-02-14T04:20:09;1.37;;;0.90;;
10880;SDS011;5493;48.884;8.338;2024-02-14T04:22:36;1.20;;;0.70;;
10880;SDS011;5493;48.884;8.338;2024-02-14T04:25:04;1.43;;;0.80;;
10880;SDS011;5493;48.884;8.338;2024-02-14T04:27:33;2.30;;;0.70;;
10880;SDS011;5493;48.884;8.338;2024-02-14T04:30:00;3.23;;;0.80;;
10880;SDS011;5493;48.884;8.338;2024-02-14T04:32:27;3.03;;;0.83;;
10880;SDS011;5493;48.884;8.338;2024-02-14T04:34:53;1.30;;;0.73;;
10880;SDS011;5493;48.884;8.338;2024-02-14T04:37:20;1.13;;;0.33;;
10880;SDS011;5493;48.884;8.338;2024-02-14T04:39:46;3.23;;;1.10;;
10880;SDS011;5493;48.884;8.338;2024-02-14T04:42:14;2.10;;;0.90;;
10880;SDS011;5493;48.884;8.338;2024-02-14T04:44:41;0.90;;;0.70;;
10880;SDS011;5493;48.884;8.338;2024-02-14T04:47:08;3.17;;;1.00;;
10880;SDS011;5493;48.884;8.338;2024-02-14T04:49:35;2.13;;;1.10;;
10880;SDS011;5493;48.884;8.338;2024-02-14T04:52:02;2.07;;;0.97;;
10880;SDS011;5493;48.884;8.338;2024-02-14T04:54:30;1.80;;;0.77;;
10880;SDS011;5493;48.884;8.338;2024-02-14T04:56:56;1.33;;;0.90;;
10880;SDS011;5493;48.884;8.338;2024-02-14T04:59:24;2.97;;;0.90;;
10880;SDS011;5493;48.884;8.338;2024-02-14T05:01:51;2.83;;;1.10;;
10880;SDS011;5493;48.884;8.338;2024-02-14T05:04:18;1.80;;;0.70;;
10880;SDS011;5493;48.884;8.338;2024-02-14T05:06:45;4.77;;;0.97;;
10880;SDS011;5493;48.884;8.338;2024-02-14T05:09:12;2.37;;;1.00;;
10880;SDS011;5493;48.884;8.338;2024-02-14T05:11:40;3.20;;;1.20;;
10880;SDS011;5493;48.884;8.338;2024-02-14T05:14:06;1.73;;;1.03;;
10880;SDS011;5493;48.884;8.338;2024-02-14T05:16:34;1.63;;;0.93;;
10880;SDS011;5493;48.884;8.338;2024-02-14T05:19:01;1.80;;;1.03;;
10880;SDS011;5493;48.884;8.338;2024-02-14T05:21:28;1.67;;;1.07;;
10880;SDS011;5493;48.884;8.338;2024-02-14T05:23:55;3.60;;;1.20;;
10880;SDS011;5493;48.884;8.338;2024-02-14T05:26:21;2.40;;;1.27;;
10880;SDS011;5493;48.884;8.338;2024-02-14T05:28:48;1.47;;;1.10;;
10880;SDS011;5493;48.884;8.338;2024-02-14T05:31:14;4.30;;;1.27;;
10880;SDS011;5493;48.884;8.338;2024-02-14T05:33:42;1.40;;;1.00;;
10880;SDS011;5493;48.884;8.338;2024-02-14T05:36:09;2.07;;;1.47;;
10880;SDS011;5493;48.884;8.338;2024-02-14T05:38:35;2.47;;;1.37;;
10880;SDS011;5493;48.884;8.338;2024-02-14T05:41:02;3.57;;;1.10;;
10880;SDS011;5493;48.884;8.338;2024-02-14T05:43:29;1.57;;;1.40;;
10880;SDS011;5493;48.884;8.338;2024-02-14T05:45:55;4.03;;;1.23;;
10880;SDS011;5493;48.884;8.338;2024-02-14T05:48:21;2.47;;;1.20;;
10880;SDS011;5493;48.884;8.338;2024-02-14T05:50:49;5.43;;;1.47;;
10880;SDS011;5493;48.884;8.338;2024-02-14T05:53:16;1.53;;;1.20;;
10880;SDS011;5493;48.884;8.338;2024-02-14T05:55:42;3.23;;;1.27;;
10880;SDS011;5493;48.884;8.338;2024-02-14T05:58:09;3.27;;;1.67;;
10880;SDS011;5493;48.884;8.338;2024-02-14T06:00:36;3.73;;;1.63;;
10880;SDS011;5493;48.884;8.338;2024-02-14T06:03:04;1.93;;;1.23;;
10880;SDS011;5493;48.884;8.338;2024-02-14T06:05:31;2.30;;;1.30;;
10880;SDS011;5493;48.884;8.338;2024-02-14T06:07:59;1.97;;;1.37;;
10880;SDS011;5493;48.884;8.338;2024-02-14T06:10:28;1.50;;;1.10;;
10880;SDS011;5493;48.884;8.338;2024-02-14T06:12:54;2.17;;;1.17;;
10880;SDS011;5493;48.884;8.338;2024-02-14T06:15:21;1.63;;;1.00;;
10880;SDS011;5493;48.884;8.338;2024-02-14T06:17:48;4.13;;;1.40;;
10880;SDS011;5493;48.884;8.338;2024-02-14T06:20:15;1.30;;;1.10;;
10880;SDS011;5493;48.884;8.338;2024-02-14T06:22:41;2.33;;;1.00;;
10880;SDS011;5493;48.884;8.338;2024-02-14T06:25:09;4.30;;;1.10;;
10880;SDS011;5493;48.884;8.338;2024-02-14T06:27:36;2.27;;;1.57;;
10880;SDS011;5493;48.884;8.338;2024-02-14T06:30:03;1.83;;;1.40;;
10880;SDS011;5493;48.884;8.338;2024-02-14T06:32:30;1.43;;;0.83;;
10880;SDS011;5493;48.884;8.338;2024-02-14T06:34:56;2.60;;;1.57;;
10880;SDS011;5493;48.884;8.338;2024-02-14T06:37:23;2.53;;;1.37;;
10880;SDS011;5493;48.884;8.338;2024-02-14T06:39:49;3.57;;;1.20;;
10880;SDS011;5493;48.884;8.338;2024-02-14T06:42:17;5.47;;;1.50;;
10880;SDS011;5493;48.884;8.338;2024-02-14T06:44:44;2.97;;;1.60;;
10880;SDS011;5493;48.884;8.338;2024-02-14T06:47:11;3.07;;;1.13;;
10880;SDS011;5493;48.884;8.338;2024-02-14T06:49:37;3.63;;;1.57;;
10880;SDS011;5493;48.884;8.338;2024-02-14T06:52:04;4.13;;;1.57;;
10880;SDS011;5493;48.884;8.338;2024-02-14T06:54:32;3.37;;;1.40;;
10880;SDS011;5493;48.884;8.338;2024-02-14T06:56:58;2.40;;;1.60;;
10880;SDS011;5493;48.884;8.338;2024-02-14T06:59:27;1.47;;;1.00;;
10880;SDS011;5493;48.884;8.338;2024-02-14T07:01:53;4.17;;;1.50;;
10880;SDS011;5493;48.884;8.338;2024-02-14T07:04:20;2.60;;;1.60;;
10880;SDS011;5493;48.884;8.338;2024-02-14T07:06:50;2.57;;;1.50;;
10880;SDS011;5493;48.884;8.338;2024-02-14T07:09:17;4.10;;;1.53;;
10880;SDS011;5493;48.884;8.338;2024-02-14T07:11:44;2.10;;;1.40;;
10880;SDS011;5493;48.884;8.338;2024-02-14T07:14:11;4.50;;;1.70;;
10880;SDS011;5493;48.884;8.338;2024-02-14T07:16:39;2.67;;;1.50;;
10880;SDS011;5493;48.884;8.338;2024-02-14T07:19:06;2.53;;;1.57;;
10880;SDS011;5493;48.884;8.338;2024-02-14T07:21:32;2.13;;;1.63;;
10880;SDS011;5493;48.884;8.338;2024-02-14T07:23:59;5.70;;;1.43;;
10880;SDS011;5493;48.884;8.338;2024-02-14T07:26:25;3.33;;;1.50;;
10880;SDS011;5493;48.884;8.338;2024-02-14T07:28:52;3.33;;;1.30;;
10880;SDS011;5493;48.884;8.338;2024-02-14T07:31:19;6.93;;;1.23;;
10880;SDS011;5493;48.884;8.338;2024-02-14T07:33:47;2.13;;;1.10;;
10880;SDS011;5493;48.884;8.338;2024-02-14T07:36:14;2.13;;;1.20;;
10880;SDS011;5493;48.884;8.338;2024-02-14T07:38:41;3.23;;;1.40;;
10880;SDS011;5493;48.884;8.338;2024-02-14T07:41:08;3.33;;;1.17;;
10880;SDS011;5493;48.884;8.338;2024-02-14T07:43:35;1.97;;;1.30;;
10880;SDS011;5493;48.884;8.338;2024-02-14T07:46:01;2.40;;;1.43;;
10880;SDS011;5493;48.884;8.338;2024-02-14T07:48:30;3.20;;;1.60;;
10880;SDS011;5493;48.884;8.338;2024-02-14T07:50:58;1.97;;;1.40;;
10880;SDS011;5493;48.884;8.338;2024-02-14T07:53:25;2.73;;;1.60;;
10880;SDS011;5493;48.884;8.338;2024-02-14T07:55:51;2.40;;;1.37;;
10880;SDS011;5493;48.884;8.338;2024-02-14T07:58:19;1.97;;;1.53;;
10880;SDS011;5493;48.884;8.338;2024-02-14T08:00:46;2.23;;;1.40;;
10880;SDS011;5493;48.884;8.338;2024-02-14T08:03:13;1.80;;;1.50;;
10880;SDS011;5493;48.884;8.338;2024-02-14T08:05:39;2.60;;;1.30;;
10880;SDS011;5493;48.884;8.338;2024-02-14T08:08:07;4.13;;;1.80;;
10880;SDS011;5493;48.884;8.338;2024-02-14T08:10:34;2.40;;;1.40;;
10880;SDS011;5493;48.884;8.338;2024-02-14T08:13:00;4.13;;;1.20;;
10880;SDS011;5493;48.884;8.338;2024-02-14T08:15:29;2.63;;;1.40;;
10880;SDS011;5493;48.884;8.338;2024-02-14T08:17:56;3.47;;;2.00;;
10880;SDS011;5493;48.884;8.338;2024-02-14T08:20:24;2.47;;;1.63;;
10880;SDS011;5493;48.884;8.338;2024-02-14T08:22:51;3.40;;;1.47;;
10880;SDS011;5493;48.884;8.338;2024-02-14T08:25:18;2.03;;;1.47;;
10880;SDS011;5493;48.884;8.338;2024-02-14T08:27:45;3.40;;;1.53;;
10880;SDS011;5493;48.884;8.338;2024-02-14T08:30:12;3.63;;;1.27;;
10880;SDS011;5493;48.884;8.338;2024-02-14T08:32:40;4.20;;;1.70;;
10880;SDS011;5493;48.884;8.338;2024-02-14T08:35:06;4.60;;;1.67;;
10880;SDS011;5493;48.884;8.338;2024-02-14T08:37:34;2.40;;;1.13;;
10880;SDS011;5493;48.884;8.338;2024-02-14T08:40:03;1.67;;;0.93;;
10880;SDS011;5493;48.884;8.338;2024-02-14T08:42:33;1.80;;;1.47;;
10880;SDS011;5493;48.884;8.338;2024-02-14T08:45:00;1.93;;;1.20;;
10880;SDS011;5493;48.884;8.338;2024-02-14T08:47:26;2.10;;;1.00;;
10880;SDS011;5493;48.884;8.338;2024-02-14T08:49:53;2.93;;;1.13;;
10880;SDS011;5493;48.884;8.338;2024-02-14T08:52:19;3.03;;;1.20;;
10880;SDS011;5493;48.884;8.338;2024-02-14T08:54:46;1.80;;;1.30;;
10880;SDS011;5493;48.884;8.338;2024-02-14T08:57:13;2.30;;;1.23;;
10880;SDS011;5493;48.884;8.338;2024-02-14T08:59:41;2.13;;;0.97;;
10880;SDS011;5493;48.884;8.338;2024-02-14T09:02:09;2.63;;;1.30;;
10880;SDS011;5493;48.884;8.338;2024-02-14T09:04:36;3.37;;;1.60;;
10880;SDS011;5493;48.884;8.338;2024-02-14T09:07:02;1.27;;;0.93;;
10880;SDS011;5493;48.884;8.338;2024-02-14T09:09:29;2.83;;;2.07;;
10880;SDS011;5493;48.884;8.338;2024-02-14T09:11:56;2.33;;;1.40;;
10880;SDS011;5493;48.884;8.338;2024-02-14T09:14:22;2.17;;;1.10;;
10880;SDS011;5493;48.884;8.338;2024-02-14T09:16:51;1.00;;;0.53;;
10880;SDS011;5493;48.884;8.338;2024-02-14T09:19:17;0.70;;;0.70;;
10880;SDS011;5493;48.884;8.338;2024-02-14T09:21:43;2.73;;;1.53;;
10880;SDS011;5493;48.884;8.338;2024-02-14T09:24:10;4.80;;;1.30;;
10880;SDS011;5493;48.884;8.338;2024-02-14T09:26:37;1.40;;;1.13;;
10880;SDS011;5493;48.884;8.338;2024-02-14T09:29:04;2.23;;;1.23;;
10880;SDS011;5493;48.884;8.338;2024-02-14T09:31:31;2.13;;;0.90;;
10880;SDS011;5493;48.884;8.338;2024-02-14T09:33:59;1.43;;;1.03;;
10880;SDS011;5493;48.884;8.338;2024-02-14T09:36:25;1.50;;;1.10;;
10880;SDS011;5493;48.884;8.338;2024-02-14T09:38:52;1.30;;;1.03;;
10880;SDS011;5493;48.884;8.338;2024-02-14T09:41:21;2.97;;;1.43;;
10880;SDS011;5493;48.884;8.338;2024-02-14T09:43:49;1.73;;;0.90;;
10880;SDS011;5493;48.884;8.338;2024-02-14T09:46:15;3.03;;;1.10;;
10880;SDS011;5493;48.884;8.338;2024-02-14T09:48:42;1.03;;;0.70;;
10880;SDS011;5493;48.884;8.338;2024-02-14T09:51:11;2.13;;;1.00;;
10880;SDS011;5493;48.884;8.338;2024-02-14T09:53:38;1.13;;;1.00;;
10880;SDS011;5493;48.884;8.338;2024-02-14T09:56:05;3.03;;;0.70;;
10880;SDS011;5493;48.884;8.338;2024-02-14T09:58:35;2.13;;;1.13;;
10880;SDS011;5493;48.884;8.338;2024-02-14T10:01:03;2.77;;;1.07;;
10880;SDS011;5493;48.884;8.338;2024-02-14T10:03:30;1.83;;;0.90;;
10880;SDS011;5493;48.884;8.338;2024-02-14T10:05:56;1.40;;;1.20;;
10880;SDS011;5493;48.884;8.338;2024-02-14T10:08:24;3.33;;;0.93;;
10880;SDS011;5493;48.884;8.338;2024-02-14T10:10:51;7.07;;;1.17;;
10880;SDS011;5493;48.884;8.338;2024-02-14T10:13:18;1.80;;;1.10;;
10880;SDS011;5493;48.884;8.338;2024-02-14T10:15:45;2.40;;;1.53;;
10880;SDS011;5493;48.884;8.338;2024-02-14T10:18:11;3.80;;;1.10;;
10880;SDS011;5493;48.884;8.338;2024-02-14T10:20:39;1.43;;;0.83;;
10880;SDS011;5493;48.884;8.338;2024-02-14T10:23:10;1.20;;;0.80;;
10880;SDS011;5493;48.884;8.338;2024-02-14T10:25:38;2.00;;;0.70;;
10880;SDS011;5493;48.884;8.338;2024-02-14T10:28:05;1.73;;;0.80;;
10880;SDS011;5493;48.884;8.338;2024-02-14T10:30:33;2.50;;;1.50;;
10880;SDS011;5493;48.884;8.338;2024-02-14T10:33:01;1.00;;;0.77;;
10880;SDS011;5493;48.884;8.338;2024-02-14T10:35:28;1.60;;;1.33;;
10880;SDS011;5493;48.884;8.338;2024-02-14T10:37:57;2.53;;;1.40;;
10880;SDS011;5493;48.884;8.338;2024-02-14T10:40:26;3.37;;;1.40;;
10880;SDS011;5493;48.884;8.338;2024-02-14T10:42:55;1.87;;;1.37;;
10880;SDS011;5493;48.884;8.338;2024-02-14T10:45:23;3.03;;;2.30;;
10880;SDS011;5493;48.884;8.338;2024-02-14T10:47:50;1.57;;;1.13;;
10880;SDS011;5493;48.884;8.338;2024-02-14T10:50:19;1.00;;;0.87;;
10880;SDS011;5493;48.884;8.338;2024-02-14T10:52:48;2.97;;;1.10;;
10880;SDS011;5493;48.884;8.338;2024-02-14T10:55:15;1.17;;;0.80;;
10880;SDS011;5493;48.884;8.338;2024-02-14T10:57:43;2.00;;;1.40;;
10880;SDS011;5493;48.884;8.338;2024-02-14T11:00:14;1.70;;;1.10;;
10880;SDS011;5493;48.884;8.338;2024-02-14T11:02:43;1.73;;;0.97;;
10880;SDS011;5493;48.884;8.338;2024-02-14T11:05:13;2.90;;;1.10;;
10880;SDS011;5493;48.884;8.338;2024-02-14T11:07:44;3.10;;;1.30;;
10880;SDS011;5493;48.884;8.338;2024-02-14T11:10:13;2.00;;;0.90;;
10880;SDS011;5493;48.884;8.338;2024-02-14T11:12:41;1.90;;;1.30;;
10880;SDS011;5493;48.884;8.338;2024-02-14T11:15:15;0.77;;;0.77;;
10880;SDS011;5493;48.884;8.338;2024-02-14T11:17:43;3.13;;;1.40;;
10880;SDS011;5493;48.884;8.338;2024-02-14T11:20:14;2.63;;;1.20;;
10880;SDS011;5493;48.884;8.338;2024-02-14T11:22:49;1.00;;;0.90;;
10880;SDS011;5493;48.884;8.338;2024-02-14T11:25:20;2.13;;;0.70;;
10880;SDS011;5493;48.884;8.338;2024-02-14T11:27:49;0.80;;;0.80;;
10880;SDS011;5493;48.884;8.338;2024-02-14T11:30:27;1.40;;;0.97;;
10880;SDS011;5493;48.884;8.338;2024-02-14T11:32:55;0.90;;;0.70;;
10880;SDS011;5493;48.884;8.338;2024-02-14T11:35:32;1.43;;;0.90;;
10880;SDS011;5493;48.884;8.338;2024-02-14T11:37:59;1.13;;;0.67;;
10880;SDS011;5493;48.884;8.338;2024-02-14T11:40:25;1.13;;;0.87;;
10880;SDS011;5493;48.884;8.338;2024-02-14T11:42:52;1.43;;;0.53;;
10880;SDS011;5493;48.884;8.338;2024-02-14T11:45:19;0.40;;;0.30;;
10880;SDS011;5493;48.884;8.338;2024-02-14T11:47:47;3.03;;;0.70;;
10880;SDS011;5493;48.884;8.338;2024-02-14T11:50:13;0.87;;;0.60;;
10880;SDS011;5493;48.884;8.338;2024-02-14T11:52:40;0.53;;;0.40;;
10880;SDS011;5493;48.884;8.338;2024-02-14T11:55:07;1.23;;;0.70;;
10880;SDS011;5493;48.884;8.338;2024-02-14T11:57:34;1.07;;;0.70;;
10880;SDS011;5493;48.884;8.338;2024-02-14T12:00:02;0.80;;;0.50;;
10880;SDS011;5493;48.884;8.338;2024-02-14T12:02:29;1.57;;;0.73;;
10880;SDS011;5493;48.884;8.338;2024-02-14T12:04:58;3.07;;;0.50;;
10880;SDS011;5493;48.884;8.338;2024-02-14T12:07:25;1.30;;;0.70;;
10880;SDS011;5493;48.884;8.338;2024-02-14T12:09:52;1.50;;;0.67;;
10880;SDS011;5493;48.884;8.338;2024-02-14T12:12:21;0.70;;;0.53;;
10880;SDS011;5493;48.884;8.338;2024-02-14T12:14:51;0.33;;;0.30;;
10880;SDS011;5493;48.884;8.338;2024-02-14T12:17:17;0.80;;;0.60;;
10880;SDS011;5493;48.884;8.338;2024-02-14T12:19:44;1.60;;;0.80;;
10880;SDS011;5493;48.884;8.338;2024-02-14T12:22:13;1.20;;;0.67;;
10880;SDS011;5493;48.884;8.338;2024-02-14T12:24:42;0.70;;;0.60;;
10880;SDS011;5493;48.884;8.338;2024-02-14T12:27:09;0.80;;;0.50;;
10880;SDS011;5493;48.884;8.338;2024-02-14T12:29:36;2.23;;;1.37;;
10880;SDS011;5493;48.884;8.338;2024-02-14T12:32:03;0.97;;;0.57;;
10880;SDS011;5493;48.884;8.338;2024-02-14T12:34:30;3.87;;;1.63;;
10880;SDS011;5493;48.884;8.338;2024-02-14T12:36:58;0.70;;;0.47;;
10880;SDS011;5493;48.884;8.338;2024-02-14T12:39:27;1.00;;;0.80;;
10880;SDS011;5493;48.884;8.338;2024-02-14T12:41:54;1.20;;;1.00;;
10880;SDS011;5493;48.884;8.338;2024-02-14T12:44:20;2.87;;;0.97;;
10880;SDS011;5493;48.884;8.338;2024-02-14T12:46:47;1.93;;;1.20;;
10880;SDS011;5493;48.884;8.338;2024-02-14T12:49:13;1.83;;;1.03;;
10880;SDS011;5493;48.884;8.338;2024-02-14T12:51:40;1.00;;;0.80;;
10880;SDS011;5493;48.884;8.338;2024-02-14T12:54:07;1.43;;;0.57;;
10880;SDS011;5493;48.884;8.338;2024-02-14T12:56:38;1.77;;;0.70;;
10880;SDS011;5493;48.884;8.338;2024-02-14T12:59:04;3.33;;;1.17;;
10880;SDS011;5493;48.884;8.338;2024-02-14T13:01:31;1.47;;;0.90;;
10880;SDS011;5493;48.884;8.338;2024-02-14T13:03:58;2.07;;;1.37;;
10880;SDS011;5493;48.884;8.338;2024-02-14T13:06:29;2.43;;;1.53;;
10880;SDS011;5493;48.884;8.338;2024-02-14T13:08:56;1.00;;;0.90;;
10880;SDS011;5493;48.884;8.338;2024-02-14T13:11:22;3.20;;;1.30;;
10880;SDS011;5493;48.884;8.338;2024-02-14T13:13:50;2.90;;;1.63;;
10880;SDS011;5493;48.884;8.338;2024-02-14T13:16:17;1.77;;;1.20;;
10880;SDS011;5493;48.884;8.338;2024-02-14T13:18:43;1.00;;;0.90;;
10880;SDS011;5493;48.884;8.338;2024-02-14T13:21:10;1.17;;;0.83;;
10880;SDS011;5493;48.884;8.338;2024-02-14T13:23:36;0.83;;;0.73;;
10880;SDS011;5493;48.884;8.338;2024-02-14T13:26:03;1.90;;;1.50;;
10880;SDS011;5493;48.884;8.338;2024-02-14T13:28:30;1.63;;;0.93;;
10880;SDS011;5493;48.884;8.338;2024-02-14T13:30:58;1.40;;;0.97;;
10880;SDS011;5493;48.884;8.338;2024-02-14T13:33:24;1.87;;;1.17;;
10880;SDS011;5493;48.884;8.338;2024-02-14T13:35:51;1.77;;;0.50;;
10880;SDS011;5493;48.884;8.338;2024-02-14T13:38:17;3.20;;;1.40;;
10880;SDS011;5493;48.884;8.338;2024-02-14T13:40:44;1.67;;;1.27;;
10880;SDS011;5493;48.884;8.338;2024-02-14T13:43:11;2.30;;;1.10;;
10880;SDS011;5493;48.884;8.338;2024-02-14T13:45:41;1.07;;;0.90;;
10880;SDS011;5493;48.884;8.338;2024-02-14T13:48:10;1.50;;;1.17;;
10880;SDS011;5493;48.884;8.338;2024-02-14T13:50:37;1.23;;;0.97;;
10880;SDS011;5493;48.884;8.338;2024-02-14T13:53:04;1.47;;;1.10;;
10880;SDS011;5493;48.884;8.338;2024-02-14T13:55:31;1.70;;;0.80;;
10880;SDS011;5493;48.884;8.338;2024-02-14T13:57:57;3.03;;;0.90;;
10880;SDS011;5493;48.884;8.338;2024-02-14T14:00:24;0.77;;;0.60;;
10880;SDS011;5493;48.884;8.338;2024-02-14T14:02:50;1.47;;;1.10;;
10880;SDS011;5493;48.884;8.338;2024-02-14T14:05:19;1.43;;;1.00;;
10880;SDS011;5493;48.884;8.338;2024-02-14T14:07:46;2.17;;;1.00;;
10880;SDS011;5493;48.884;8.338;2024-02-14T14:10:13;1.30;;;0.83;;
10880;SDS011;5493;48.884;8.338;2024-02-14T14:12:40;1.07;;;0.80;;
10880;SDS011;5493;48.884;8.338;2024-02-14T14:15:07;2.43;;;1.13;;
10880;SDS011;5493;48.884;8.338;2024-02-14T14:17:34;1.63;;;0.90;;
10880;SDS011;5493;48.884;8.338;2024-02-14T14:20:01;0.77;;;0.70;;
10880;SDS011;5493;48.884;8.338;2024-02-14T14:22:30;3.90;;;1.33;;
10880;SDS011;5493;48.884;8.338;2024-02-14T14:24:57;1.00;;;0.90;;
10880;SDS011;5493;48.884;8.338;2024-02-14T14:27:23;2.67;;;1.10;;
10880;SDS011;5493;48.884;8.338;2024-02-14T14:29:50;2.27;;;1.27;;
10880;SDS011;5493;48.884;8.338;2024-02-14T14:32:16;1.83;;;1.20;;
10880;SDS011;5493;48.884;8.338;2024-02-14T14:34:43;1.80;;;1.27;;
10880;SDS011;5493;48.884;8.338;2024-02-14T14:37:09;1.60;;;1.30;;
10880;SDS011;5493;48.884;8.338;2024-02-14T14:39:37;1.10;;;0.97;;
10880;SDS011;5493;48.884;8.338;2024-02-14T14:42:04;0.80;;;0.73;;
10880;SDS011;5493;48.884;8.338;2024-02-14T14:44:32;1.77;;;1.23;;
10880;SDS011;5493;48.884;8.338;2024-02-14T14:46:59;1.47;;;0.93;;
10880;SDS011;5493;48.884;8.338;2024-02-14T14:49:26;2.83;;;1.60;;
10880;SDS011;5493;48.884;8.338;2024-02-14T14:51:52;2.23;;;1.20;;
10880;SDS011;5493;48.884;8.338;2024-02-14T14:54:19;1.53;;;0.80;;
10880;SDS011;5493;48.884;8.338;2024-02-14T14:56:47;0.87;;;0.73;;
10880;SDS011;5493;48.884;8.338;2024-02-14T14:59:19;1.27;;;0.83;;